Flugplatz Stade

EDHS · Lower Saxony, Germany

METAR history EDHS · Flugplatz Stade

Below you see METARs of the last few days. Select a year to browse through older METARs, from the year 2007 onwards.

April 14, 2024

Time Code Weather Temp. Visibility Ceiling Wind METAR/SPECI
18:20
V
13 °C 10 km+ - 280° 280° 15 kt METAR EDHI 141620Z AUTO 28015KT 9999 // NCD 13/03 Q1018
17:50
V
13 °C 10 km+ - 270° 270° 17 kt METAR EDHI 141550Z AUTO 27017KT 9999 // NCD 13/02 Q1018
17:20
V
13 °C 10 km+ - 280° 280° 18 kt METAR EDHI 141520Z AUTO 28018KT 9999 // FEW042/// 13/04 Q1018
16:50
V
13 °C 10 km+ - 300° 300° 15 kt METAR EDHI 141450Z AUTO 30015KT 9999 // FEW043/// SCT053/// 13/05 Q1018
16:20
V
13 °C 10 km+ 5,200 ft 280° 280° 14 kt METAR EDHI 141420Z AUTO 28014KT 9999 // BKN052/// 13/05 Q1019
15:50
V
14 °C 10 km+ - 270° 270° 17 kt METAR EDHI 141350Z AUTO 27017KT 9999 // SCT053/// 14/04 Q1019
15:20
V
14 °C 10 km+ - 280° 280° 16 kt METAR EDHI 141320Z AUTO 28016KT 250V310 9999 // FEW041/// 14/04 Q1019
14:50
V
14 °C 10 km+ - 290° 290° 17 kt METAR EDHI 141250Z AUTO 29017KT 9999 // FEW045/// SCT053/// 14/05 Q1019
14:20
V
14 °C 10 km+ 5,800 ft 270° 270° 16 kt METAR EDHI 141220Z AUTO 27016KT 240V310 9999 // SCT049/// BKN058/// 14/04 Q1019
13:50
V
14 °C 10 km+ 4,700 ft 270° 270° 19 kt METAR EDHI 141150Z AUTO 27019KT 9999 // BKN047/// 14/04 Q1019
13:20
V
13 °C 10 km+ - 280° 280° 15 kt METAR EDHI 141120Z AUTO 28015KT 9999 // SCT048/// 13/04 Q1019
12:50
V
13 °C 10 km+ - 270° 270° 18 kt METAR EDHI 141050Z AUTO 27018KT 9999 // SCT043/// 13/04 Q1020
12:20
V
13 °C 10 km+ 21,000 ft 270° 270° 15 - 27 kt METAR EDHI 141020Z AUTO 27015G27KT 9999 // SCT043/// SCT049/// BKN210/// 13/03 Q1019
11:50
V
12 °C 10 km+ - 270° 270° 17 kt METAR EDHI 140950Z AUTO 27017KT 9999 // SCT041/// SCT210/// 12/04 Q1019
11:20
V
12 °C 10 km+ 3,700 ft 270° 270° 18 kt METAR EDHI 140920Z AUTO 27018KT 9999 // BKN037/// 12/04 Q1019
10:50
V
12 °C 10 km+ - 280° 280° 14 kt METAR EDHI 140850Z AUTO 28014KT 9999 // SCT035/// 12/05 Q1019
10:20
V
11 °C 10 km+ - 270° 270° 16 kt METAR EDHI 140820Z AUTO 27016KT 9999 // SCT031/// 11/04 Q1019
09:50
V
11 °C 10 km+ - 270° 270° 17 kt METAR EDHI 140750Z AUTO 27017KT 9999 // SCT030/// 11/05 Q1019
09:20
V
10 °C 10 km+ - 270° 270° 18 kt METAR EDHI 140720Z AUTO 27018KT 9999 // FEW028/// SCT190/// 10/05 Q1019
08:50
V
10 °C 10 km+ 19,000 ft 270° 270° 15 kt METAR EDHI 140650Z AUTO 27015KT 9999 // BKN190/// 10/05 Q1018
08:20
V
10 °C 10 km+ 18,000 ft 270° 270° 16 kt METAR EDHI 140620Z AUTO 27016KT 9999 // BKN180/// 10/06 Q1018
07:50
V
10 °C 10 km+ 19,000 ft 270° 270° 15 kt METAR EDHI 140550Z AUTO 27015KT 9999 // FEW021/// BKN190/// 10/06 Q1018
07:20
V
10 °C 10 km+ 19,000 ft 270° 270° 14 kt METAR EDHI 140520Z AUTO 27014KT 9999 // FEW023/// BKN190/// 10/06 Q1018
06:50
V
10 °C 10 km+ 20,000 ft 280° 280° 13 kt METAR EDHI 140450Z AUTO 28013KT 9999 // FEW025/// BKN200/// 10/06 Q1017
06:20
V
11 °C 10 km+ 20,000 ft 290° 290° 14 kt METAR EDHI 140420Z AUTO 29014KT 9999 // FEW025/// BKN200/// 11/06 Q1017
05:50
V
11 °C 10 km+ 7,200 ft 290° 290° 14 kt METAR EDHI 140350Z AUTO 29014KT 9999 // FEW024/// BKN072/// 11/07 Q1017
05:20
V
11 °C 10 km+ 7,100 ft 290° 290° 12 kt METAR EDHI 140320Z AUTO 29012KT 9999 // FEW020/// BKN071/// BKN250/// 11/08 Q1016
04:50
V
12 °C 10 km+ 5,200 ft 290° 290° 13 kt METAR EDHI 140250Z AUTO 29013KT 260V320 9999 // FEW021/// BKN052/// OVC070/// 12/09 Q1016
04:20
M
13 °C 10 km+ 2,000 ft 290° 290° 15 kt METAR EDHI 140220Z AUTO 29015KT 9999 // BKN020/// OVC024/// 13/09 Q1015
03:50
M
13 °C 10 km+ 2,600 ft 270° 270° 15 kt METAR EDHI 140150Z AUTO 27015KT 9999 // FEW022/// BKN026/// OVC044/// 13/10 Q1015
03:20
V
14 °C 10 km+ 3,100 ft 280° 280° 15 kt METAR EDHI 140120Z AUTO 28015KT 9999 // FEW020/// SCT023/// OVC031/// 14/10 Q1015
02:50
V
14 °C 10 km+ 4,000 ft 270° 270° 15 kt METAR EDHI 140050Z AUTO 27015KT 9999 // SCT026/// BKN040/// OVC074/// 14/10 Q1015
02:20
M
15 °C 10 km+ 2,900 ft 280° 280° 11 kt METAR EDHI 140020Z AUTO 28011KT 9999 // BKN029/// BKN041/// OVC130/// 15/10 Q1015
01:50
V
15 °C 10 km+ 9,300 ft 280° 280° 15 kt METAR EDHI 132350Z AUTO 28015KT 9999 // FEW029/// SCT038/// OVC093/// 15/10 Q1015
01:20
V
16 °C 10 km+ 9,600 ft 270° 270° 16 kt METAR EDHI 132320Z AUTO 27016KT 9999 // BKN096/// BKN140/// BKN210/// 16/10 Q1015
00:50
V
16 °C 10 km+ 9,800 ft 270° 270° 19 kt METAR EDHI 132250Z AUTO 27019KT 9999 // SCT041/// BKN098/// BKN140/// 16/10 Q1015
00:20
V
17 °C 10 km+ 4,400 ft 270° 270° 15 kt METAR EDHI 132220Z AUTO 27015KT 9999 // FEW038/// BKN044/// OVC063/// 17/12 Q1015

April 13, 2024

Time Code Weather Temp. Visibility Ceiling Wind METAR/SPECI
23:50
V
17 °C 10 km+ 4,500 ft 260° 260° 8 kt METAR EDHI 132150Z AUTO 26008KT 9999 // BKN045/// BKN100/// 17/13 Q1014
23:20
V
18 °C 10 km+ 23,000 ft 230° 230° 8 kt METAR EDHI 132120Z AUTO 23008KT 9999 // SCT054/// SCT100/// BKN230/// 18/13 Q1014
22:50
V
18 °C 10 km+ 23,000 ft 230° 230° 9 kt METAR EDHI 132050Z AUTO 23009KT 9999 // FEW052/// BKN230/// 18/13 Q1014
22:20
V
18 °C 10 km+ 24,000 ft 210° 210° 9 kt METAR EDHI 132020Z AUTO 21009KT 9999 // FEW130/// BKN240/// 18/13 Q1015
21:50
V
18 °C 10 km+ 23,000 ft 200° 200° 8 kt METAR EDHI 131950Z AUTO 20008KT 9999 // FEW063/// BKN230/// 18/13 Q1015
21:20
V
17 °C 10 km+ 23,000 ft 200° 200° 6 kt METAR EDHI 131920Z AUTO 20006KT 9999 // SCT050/// OVC230/// 17/13 Q1016
20:50
V
18 °C 10 km+ 4,900 ft 220° 220° 4 kt METAR EDHI 131850Z AUTO 22004KT 9999 // BKN049/// OVC220/// 18/13 Q1016
20:20
V
18 °C 10 km+ 5,400 ft 210° 210° 5 kt METAR EDHI 131820Z AUTO 21005KT 180V240 9999 // BKN054/// BKN230/// 18/13 Q1016
19:50
V
19 °C 10 km+ 22,000 ft 220° 220° 5 kt METAR EDHI 131750Z AUTO 22005KT 9999 // SCT059/// BKN220/// 19/13 Q1016
19:20
V
19 °C 10 km+ 22,000 ft 220° 220° 6 kt METAR EDHI 131720Z AUTO 22006KT 9999 // FEW048/// BKN220/// 19/13 Q1017
18:50
V
20 °C 10 km+ 22,000 ft 230° 230° 8 kt METAR EDHI 131650Z AUTO 23008KT 9999 // FEW042/// BKN220/// 20/13 Q1017
18:20
V
20 °C 10 km+ 4,800 ft 230° 230° 8 kt METAR EDHI 131620Z AUTO 23008KT 9999 // SCT042/// BKN048/// BKN230/// 20/13 Q1018
17:50
V
20 °C 10 km+ 23,000 ft 230° 230° 10 kt METAR EDHI 131550Z AUTO 23010KT 9999 // SCT042/// SCT050/// BKN230/// 20/13 Q1018
17:20
V
20 °C 10 km+ 4,200 ft 240° 240° 14 kt METAR EDHI 131520Z AUTO 24014KT 9999 // BKN042/// 20/12 Q1018
16:50
V
20 °C 10 km+ - 240° 240° 14 kt METAR EDHI 131450Z AUTO 24014KT 9999 // SCT044/// 20/12 Q1019
16:20
V
20 °C 10 km+ - 240° 240° 16 kt METAR EDHI 131420Z AUTO 24016KT 9999 // FEW045/// SCT230/// 20/11 Q1019
15:50
V
20 °C 10 km+ - 250° 250° 13 kt METAR EDHI 131350Z AUTO 25013KT 9999 // FEW043/// 20/10 Q1020
15:20
V
20 °C 10 km+ - 240° 240° 14 kt METAR EDHI 131320Z AUTO 24014KT 9999 // FEW040/// SCT230/// 20/11 Q1021
14:50
V
20 °C 10 km+ - 250° 250° 12 kt METAR EDHI 131250Z AUTO 25012KT 9999 // FEW040/// 20/11 Q1021
14:20
V
19 °C 10 km+ - 240° 240° 14 kt METAR EDHI 131220Z AUTO 24014KT 9999 // FEW041/// 19/11 Q1021
13:50
V
19 °C 10 km+ - 240° 240° 14 kt METAR EDHI 131150Z AUTO 24014KT 9999 // FEW034/// 19/11 Q1022
13:20
V
19 °C 10 km+ - 240° 240° 14 kt METAR EDHI 131120Z AUTO 24014KT 9999 // FEW032/// SCT230/// 19/11 Q1022
12:50
V
18 °C 10 km+ - 250° 250° 13 kt METAR EDHI 131050Z AUTO 25013KT 9999 // FEW027/// 18/11 Q1022
12:20
M
18 °C 10 km+ 2,500 ft 230° 230° 12 kt METAR EDHI 131020Z AUTO 23012KT 200V260 9999 // BKN025/// 18/11 Q1022
11:50
V
17 °C 10 km+ - 250° 250° 13 kt METAR EDHI 130950Z AUTO 25013KT 9999 // SCT022/// 17/12 Q1023
11:20
V
16 °C 10 km+ - 240° 240° 11 kt METAR EDHI 130920Z AUTO 24011KT 9999 // FEW021/// 16/11 Q1023
10:50
V
16 °C 10 km+ - 240° 240° 12 kt METAR EDHI 130850Z 24012KT 9999 FEW018 16/11 Q1023
10:20
V
15 °C 10 km+ - 250° 250° 11 kt METAR EDHI 130820Z 25011KT 9999 FEW017 SCT035 15/11 Q1023
09:50
V
14 °C 10 km+ - 240° 240° 12 kt METAR EDHI 130750Z 24012KT 9999 FEW034 14/11 Q1023
09:20
V
14 °C 10 km+ - 230° 230° 12 kt METAR EDHI 130720Z 23012KT 9999 FEW032 14/11 Q1023
08:50
V
13 °C 10 km+ - 230° 230° 11 kt METAR EDHI 130650Z AUTO 23011KT 9999 // SCT035/// 13/11 Q1023
08:20
V
13 °C 10 km+ - 230° 230° 7 kt METAR EDHI 130620Z AUTO 23007KT 9999 // SCT039/// 13/11 Q1023
07:50
V
12 °C 10 km+ - 230° 230° 7 kt METAR EDHI 130550Z AUTO 23007KT 9999 // FEW037/// 12/10 Q1023
07:20
V
11 °C 10 km+ - Var Var 2 kt METAR EDHI 130520Z AUTO VRB02KT 9999 // NCD 11/10 Q1023
06:50
V
10 °C 10 km+ - 240° 240° 3 kt METAR EDHI 130450Z AUTO 24003KT 9999 // NCD 10/09 Q1023
06:20
V
10 °C 10 km+ - 220° 220° 4 kt METAR EDHI 130420Z AUTO 22004KT 9999 // NCD 10/09 Q1023
05:50
V
11 °C 10 km+ - 230° 230° 3 kt METAR EDHI 130350Z AUTO 23003KT 190V260 9999 // NCD 11/09 Q1023
05:20
V
10 °C 10 km+ - Var Var 2 kt METAR EDHI 130320Z AUTO VRB02KT 9999 // FEW250/// 10/09 Q1023
04:50
V
11 °C 10 km+ - 260° 260° 2 kt METAR EDHI 130250Z AUTO 26002KT 9999 // NCD 11/09 Q1023
04:20
V
10 °C 10 km+ - 250° 250° 4 kt METAR EDHI 130220Z AUTO 25004KT 9999 // NCD 10/09 Q1023
03:50
V
10 °C 10 km+ - 240° 240° 4 kt METAR EDHI 130150Z AUTO 24004KT 9999 // NCD 10/09 Q1024
03:20
V
10 °C 10 km+ - 250° 250° 4 kt METAR EDHI 130120Z AUTO 25004KT 9999 // NCD 10/09 Q1024
02:50
V
11 °C 10 km+ - 250° 250° 4 kt METAR EDHI 130050Z AUTO 25004KT 9999 // NCD 11/09 Q1024
02:20
V
10 °C 10 km+ - 240° 240° 4 kt METAR EDHI 130020Z AUTO 24004KT 9999 // NCD 10/09 Q1024
01:50
V
10 °C 10 km+ - 230° 230° 6 kt METAR EDHI 122350Z AUTO 23006KT 9999 // NCD 10/09 Q1025
01:20
M
9 °C 7 km - 220° 220° 4 kt METAR EDHI 122320Z AUTO 22004KT 190V250 7000 // NCD 09/08 Q1025
00:50
V
9 °C 9 km - 200° 200° 3 kt METAR EDHI 122250Z AUTO 20003KT 9000 // SCT220/// 09/08 Q1025
00:20
V
8 °C 9 km - 240° 240° 3 kt METAR EDHI 122220Z AUTO 24003KT 9000 // FEW220/// 08/08 Q1025

April 12, 2024

Time Code Weather Temp. Visibility Ceiling Wind METAR/SPECI
23:50
V
9 °C 10 km+ - 210° 210° 3 kt METAR EDHI 122150Z AUTO 21003KT 9999 // FEW220/// 09/09 Q1025
23:20
V
11 °C 10 km+ - 280° 280° 4 kt METAR EDHI 122120Z AUTO 28004KT 240V310 9999 // SCT220/// 11/09 Q1025
22:50
V
12 °C 10 km+ 23,000 ft 310° 310° 4 kt METAR EDHI 122050Z AUTO 31004KT 9999 // BKN230/// 12/10 Q1026
22:20
V
12 °C 10 km+ - 310° 310° 4 kt METAR EDHI 122020Z AUTO 31004KT 270V340 9999 // FEW220/// 12/10 Q1026
21:50
V
12 °C 10 km+ - 310° 310° 4 kt METAR EDHI 121950Z AUTO 31004KT 290V350 9999 // FEW240/// 12/10 Q1026
21:20
V
13 °C 10 km+ - 290° 290° 4 kt METAR EDHI 121920Z AUTO 29004KT 9999 // FEW240/// 13/11 Q1026
20:50
V
13 °C 10 km+ - 270° 270° 5 kt METAR EDHI 121850Z AUTO 27005KT 9999 // FEW180/// 13/11 Q1025
20:20
V
13 °C 10 km+ 20,000 ft 290° 290° 5 kt METAR EDHI 121820Z AUTO 29005KT 9999 // BKN200/// 13/11 Q1025
19:50
V
14 °C 10 km+ 19,000 ft 280° 280° 6 kt METAR EDHI 121750Z AUTO 28006KT 9999 // FEW130/// BKN190/// 14/11 Q1025
19:20
V
14 °C 10 km+ - 300° 300° 6 kt METAR EDHI 121720Z AUTO 30006KT 270V330 9999 // SCT200/// 14/11 Q1025
18:50
V
15 °C 10 km+ - 310° 310° 8 kt METAR EDHI 121650Z 31008KT CAVOK 15/11 Q1025
18:20
V
16 °C 10 km+ - 320° 320° 8 kt METAR EDHI 121620Z 32008KT 280V350 CAVOK 16/11 Q1025
17:50
V
17 °C 10 km+ - 330° 330° 10 kt METAR EDHI 121550Z 33010KT 290V360 CAVOK 17/11 Q1025
17:20
V
19 °C 10 km+ - 260° 260° 13 kt METAR EDHI 121520Z 26013KT 9999 FEW044 19/10 Q1025
16:50
V
19 °C 10 km+ - 250° 250° 13 kt METAR EDHI 121450Z 25013KT 9999 SCT036 19/11 Q1025
16:20
V
19 °C 10 km+ - 250° 250° 14 kt METAR EDHI 121420Z 25014KT 9999 SCT036 19/11 Q1026
15:50
V
18 °C 10 km+ - 240° 240° 16 kt METAR EDHI 121350Z 24016KT 9999 FEW034 18/11 Q1026
15:20
V
18 °C 10 km+ - 230° 230° 14 kt METAR EDHI 121320Z 23014KT 9999 SCT028 18/11 Q1026
14:50
V
17 °C 10 km+ - 230° 230° 14 kt METAR EDHI 121250Z 23014KT 9999 FEW022 17/12 Q1027
14:20
M
17 °C 10 km+ 1,700 ft 230° 230° 12 - 24 kt METAR EDHI 121220Z 23012G24KT 9999 BKN017 17/12 Q1027
13:50
M
16 °C 10 km+ 1,500 ft 230° 230° 12 kt METAR EDHI 121150Z 23012KT 9999 OVC015 16/12 Q1027
13:20
M
15 °C 10 km+ 1,400 ft 230° 230° 12 kt METAR EDHI 121120Z 23012KT 9999 OVC014 15/13 Q1027
12:50
M
15 °C 10 km+ 1,400 ft 220° 220° 12 kt METAR EDHI 121050Z 22012KT 9999 OVC014 15/12 Q1027
12:20
M
15 °C 10 km+ 1,500 ft 220° 220° 13 kt METAR EDHI 121020Z 22013KT 9999 BKN015 15/12 Q1028
11:50
M
15 °C 10 km+ 1,700 ft 230° 230° 12 kt METAR EDHI 120950Z 23012KT 9999 BKN017 15/11 Q1028
11:20
M
15 °C 10 km+ 2,100 ft 230° 230° 13 kt METAR EDHI 120920Z 23013KT 9999 SCT016 BKN021 15/12 Q1028
10:50
M
14 °C 10 km+ 1,500 ft 220° 220° 10 kt METAR EDHI 120850Z 22010KT 190V250 9999 BKN015 14/11 Q1028
10:20
M
14 °C 10 km+ 2,300 ft 220° 220° 10 kt METAR EDHI 120820Z 22010KT 9999 FEW011 BKN023 14/12 Q1028
09:50
M
14 °C 10 km+ 2,800 ft 220° 220° 10 kt METAR EDHI 120750Z 22010KT 9999 SCT012 BKN028 14/12 Q1028
09:20
M
13 °C 10 km+ 1,200 ft 220° 220° 10 kt METAR EDHI 120720Z 22010KT 9999 BKN012 13/12 Q1028
08:50
M
13 °C 8 km 1,400 ft 220° 220° 9 kt METAR EDHI 120650Z 22009KT 8000 -RA BKN014 13/12 Q1028
08:20
M
13 °C 9 km 2,000 ft 220° 220° 7 kt METAR EDHI 120620Z 22007KT 9000 FEW014 BKN020 13/12 Q1029
07:50
M
13 °C 7 km 2,000 ft 200° 200° 8 kt METAR EDHI 120550Z 20008KT 7000 FEW009 BKN020 13/12 Q1028
Report a change